Time;durP1;ratioP1;P1;durP2;ratioP2;P2;SDS_P1;SDS_P2;PMS_P1;PMS_P2;Temp;Humidity;BMP_temperature;BMP_pressure;BME280_temperature;BME280_humidity;BME280_pressure;Samples;Min_cycle;Max_cycle;Signal;HPM_P1;HPM_P2
2023/01/05 00:02:00;;;;;;;0.10;0.10;;;;;;;12.82;64.53;101684.03;5116997;28;20038;-81
2023/01/05 00:04:26;;;;;;;0.10;0.10;;;;;;;12.85;64.10;101676.00;5107747;28;20530;-81
2023/01/05 00:06:52;;;;;;;0.10;0.10;;;;;;;12.85;64.26;101683.13;5110831;28;20059;-81
2023/01/05 00:09:20;;;;;;;0.10;0.10;;;;;;;12.82;63.65;101696.44;5112223;28;20019;-81
2023/01/05 00:23:06;;;;;;;2.05;1.95;;;;;;;12.77;64.04;101677.91;5104717;28;20062;-80
2023/01/05 00:25:37;;;;;;;2.67;2.55;;;;;;;12.81;64.59;101668.09;5118089;28;20036;-80
2023/01/05 00:28:03;;;;;;;1.00;0.95;;;;;;;12.64;64.77;101676.34;5118750;28;20034;-80
2023/01/05 00:30:42;;;;;;;0.47;0.47;;;;;;;12.79;64.50;101676.09;5117136;28;20032;-80
2023/01/05 00:33:14;;;;;;;0.10;0.10;;;;;;;12.73;64.61;101677.06;5117174;28;20023;-80
2023/01/05 00:35:41;;;;;;;0.20;0.20;;;;;;;12.67;64.79;101670.97;5117801;28;20023;-80
2023/01/05 00:38:08;;;;;;;0.10;0.10;;;;;;;12.59;65.08;101671.09;5101825;28;20514;-80
2023/01/05 00:40:35;;;;;;;1.65;1.10;;;;;;;12.53;65.33;101680.03;5107252;28;20031;-80
2023/01/05 00:43:01;;;;;;;0.10;0.10;;;;;;;12.55;65.26;101682.69;5116543;28;20077;-80
2023/01/05 00:45:27;;;;;;;1.92;1.45;;;;;;;12.55;65.08;101682.69;5107907;28;20050;-80
2023/01/05 00:47:54;;;;;;;0.38;0.38;;;;;;;12.59;64.53;101679.06;5114154;28;20421;-80
2023/01/05 00:50:21;;;;;;;0.35;0.35;;;;;;;12.55;64.85;101680.91;5111936;28;20505;-80
2023/01/05 00:52:48;;;;;;;0.57;0.57;;;;;;;12.55;64.76;101677.38;5099304;28;20040;-80
2023/01/05 00:55:14;;;;;;;0.10;0.10;;;;;;;12.51;65.74;101689.84;5121986;28;20032;-80
2023/01/05 00:57:40;;;;;;;0.10;0.10;;;;;;;12.57;65.14;101686.19;5116650;28;20051;-80
2023/01/05 01:00:11;;;;;;;0.20;0.20;;;;;;;12.51;65.05;101692.50;5113285;28;20020;-80
2023/01/05 01:02:37;;;;;;;0.10;0.10;;;;;;;12.53;65.31;101690.66;5120119;28;20511;-80
2023/01/05 01:05:05;;;;;;;0.22;0.22;;;;;;;12.47;65.46;101701.38;5106614;28;20024;-80
2023/01/05 01:07:31;;;;;;;0.17;0.17;;;;;;;12.51;65.01;101700.47;5116015;28;20031;-80
2023/01/05 01:09:57;;;;;;;0.10;0.10;;;;;;;12.45;65.76;101711.19;5115746;28;20036;-80
2023/01/05 01:12:23;;;;;;;0.10;0.10;;;;;;;12.49;65.87;101710.22;5115662;28;20038;-80
2023/01/05 01:14:49;;;;;;;0.10;0.10;;;;;;;12.42;65.74;101704.13;5116689;28;20206;-80
2023/01/05 01:17:16;;;;;;;0.20;0.20;;;;;;;12.42;66.31;101717.41;5114408;28;20047;-80
2023/01/05 01:19:44;;;;;;;0.10;0.10;;;;;;;12.44;65.72;101720.06;5112297;28;20042;-80
2023/01/05 01:22:11;;;;;;;0.50;0.50;;;;;;;12.43;66.09;101712.97;5096417;28;20031;-80
2023/01/05 01:24:37;;;;;;;0.10;0.10;;;;;;;12.42;66.20;101709.44;5096425;28;20032;-80
2023/01/05 01:27:03;;;;;;;1.35;1.27;;;;;;;12.33;67.14;101717.53;5096825;28;20549;-80
2023/01/05 01:29:30;;;;;;;0.10;0.10;;;;;;;12.30;67.06;101712.28;5095776;28;20543;-80
2023/01/05 01:31:56;;;;;;;1.38;0.45;;;;;;;12.33;66.90;101724.63;5109906;28;20096;-80
2023/01/05 01:34:23;;;;;;;0.10;0.10;;;;;;;12.32;66.94;101722.88;5106619;28;20032;-80
2023/01/05 01:36:49;;;;;;;0.10;0.10;;;;;;;12.29;67.63;101734.41;5095529;28;20024;-80
2023/01/05 01:39:15;;;;;;;0.20;0.20;;;;;;;12.23;67.44;101729.19;5095050;28;20085;-80
2023/01/05 01:41:42;;;;;;;1.88;1.40;;;;;;;12.20;67.65;101742.50;5096135;28;20028;-80
2023/01/05 01:44:48;;;;;;;0.13;0.13;;;;;;;12.34;67.82;101740.56;5112511;28;20046;-80
2023/01/05 01:47:21;;;;;;;1.30;0.85;;;;;;;12.28;67.75;101738.84;5108717;28;20432;-80
2023/01/05 01:49:48;;;;;;;0.20;0.20;;;;;;;12.24;67.76;101731.81;5110111;28;20028;-80
2023/01/05 01:52:14;;;;;;;0.10;0.10;;;;;;;12.27;67.33;101726.47;5107991;28;20248;-81
2023/01/05 01:54:41;;;;;;;0.30;0.30;;;;;;;12.33;67.23;101735.25;5107096;28;20482;-81
2023/01/05 01:57:11;;;;;;;1.38;1.27;;;;;;;12.32;67.77;101737.03;5113621;28;20055;-81
2023/01/05 01:59:38;;;;;;;0.30;0.30;;;;;;;12.31;67.02;101745.88;5105152;28;20031;-80
2023/01/05 02:02:06;;;;;;;0.10;0.10;;;;;;;12.26;66.89;101751.28;5108442;28;20053;-80
2023/01/05 02:04:35;;;;;;;0.10;0.10;;;;;;;12.20;67.16;101751.34;5113955;28;20028;-80
2023/01/05 02:07:03;;;;;;;0.85;0.80;;;;;;;12.26;67.58;101758.34;5109943;28;20019;-80
2023/01/05 02:09:30;;;;;;;0.10;0.10;;;;;;;12.30;67.23;101758.31;5110559;28;20031;-80
2023/01/05 02:17:36;;;;;;;0.30;0.30;;;;;;;12.31;66.92;101753.84;5099394;27;20779;-81
2023/01/05 02:23:22;;;;;;;1.98;1.88;;;;;;;12.26;67.04;101761.91;5071318;28;21032;-81
2023/01/05 02:26:19;;;;;;;2.72;1.00;;;;;;;12.28;66.68;101759.22;5060862;28;20066;-81
2023/01/05 02:29:05;;;;;;;0.10;0.10;;;;;;;12.30;66.31;101754.78;5045261;28;20033;-81
2023/01/05 02:31:43;;;;;;;1.25;1.20;;;;;;;12.25;66.42;101759.25;5047992;28;20039;-81
2023/01/05 02:37:21;;;;;;;0.38;0.38;;;;;;;12.30;66.15;101757.44;5133220;27;20398;-80
2023/01/05 02:42:26;;;;;;;1.38;1.27;;;;;;;12.25;66.42;101757.50;5071486;28;20534;-81
2023/01/05 02:44:52;;;;;;;0.10;0.10;;;;;;;12.25;66.73;101760.16;5072333;28;20119;-81
2023/01/05 02:50:09;;;;;;;4.40;1.85;;;;;;;12.29;66.72;101761.84;5071968;28;20383;-81
2023/01/05 02:52:45;;;;;;;0.45;0.45;;;;;;;12.27;66.63;101779.63;5072403;28;20036;-81
2023/01/05 02:55:15;;;;;;;0.10;0.10;;;;;;;12.31;66.81;101772.47;5065088;28;20117;-81
2023/01/05 02:57:54;;;;;;;0.10;0.10;;;;;;;12.28;66.28;101761.88;5065152;28;20147;-80
2023/01/05 03:00:29;;;;;;;0.30;0.30;;;;;;;12.22;66.43;101797.38;5061339;28;20082;-80
2023/01/05 03:03:05;;;;;;;0.22;0.22;;;;;;;12.29;66.46;101772.50;5057903;28;20075;-80
2023/01/05 03:05:39;;;;;;;2.65;1.85;;;;;;;12.40;66.23;101768.81;5067745;28;20022;-81
2023/01/05 03:08:06;;;;;;;0.10;0.10;;;;;;;12.41;66.31;101773.22;5067016;28;20120;-81
2023/01/05 03:13:45;;;;;;;2.20;1.75;;;;;;;12.48;66.39;101758.09;5066927;28;20029;-81
2023/01/05 03:16:18;;;;;;;0.10;0.10;;;;;;;12.50;66.05;101769.56;5077439;28;20059;-81
2023/01/05 03:35:42;;;;;;;0.10;0.10;;;;;;;12.80;65.44;101776.25;5067284;28;20043;-81
2023/01/05 03:38:27;;;;;;;16.35;1.50;;;;;;;12.82;65.20;101787.75;5074748;28;20028;-80
2023/01/05 03:40:57;;;;;;;0.30;0.30;;;;;;;12.86;64.85;101789.47;5064107;28;20036;-81
2023/01/05 03:43:24;;;;;;;0.10;0.10;;;;;;;12.79;65.10;101798.44;5075833;28;20032;-81
2023/01/05 03:45:53;;;;;;;23.10;2.47;;;;;;;12.91;64.94;101784.97;5067893;28;20017;-81
2023/01/05 03:48:21;;;;;;;0.77;0.77;;;;;;;12.89;64.89;101791.22;5066248;28;20052;-81
2023/01/05 03:50:47;;;;;;;0.63;0.63;;;;;;;12.90;64.86;101788.53;5061989;28;20317;-81
2023/01/05 03:53:13;;;;;;;0.10;0.10;;;;;;;12.85;64.53;101789.50;5068773;28;20378;-81
2023/01/05 03:55:40;;;;;;;0.77;0.77;;;;;;;12.89;65.01;101793.88;5070940;28;20532;-81
2023/01/05 03:58:06;;;;;;;0.93;0.85;;;;;;;12.90;64.98;101785.00;5071773;28;20467;-81
2023/01/05 04:00:32;;;;;;;0.10;0.10;;;;;;;13.01;64.86;101784.81;5058317;28;20032;-81
2023/01/05 04:02:58;;;;;;;0.10;0.10;;;;;;;13.01;64.53;101800.78;5045909;28;20029;-81
2023/01/05 04:05:24;;;;;;;0.13;0.13;;;;;;;12.98;64.57;101787.53;5050507;28;20061;-81
2023/01/05 04:07:50;;;;;;;0.10;0.10;;;;;;;12.99;64.75;101783.97;5054446;28;20423;-81
2023/01/05 04:10:16;;;;;;;0.10;0.10;;;;;;;12.93;64.69;101785.84;5059046;28;20048;-81
2023/01/05 04:12:45;;;;;;;0.10;0.10;;;;;;;13.02;65.18;101783.91;5050395;28;20033;-81
2023/01/05 04:15:11;;;;;;;0.10;0.10;;;;;;;12.92;64.99;101784.06;5053068;28;20421;-81
2023/01/05 04:17:37;;;;;;;0.10;0.10;;;;;;;12.91;65.14;101776.97;5053461;28;20029;-80
2023/01/05 04:20:04;;;;;;;4.43;4.03;;;;;;;12.94;65.19;101784.91;5056813;28;20098;-81
2023/01/05 04:22:31;;;;;;;0.10;0.10;;;;;;;12.97;65.13;101775.13;5056234;28;20032;-81
2023/01/05 04:24:57;;;;;;;0.30;0.30;;;;;;;12.88;65.58;101805.41;5056374;28;20043;-81
2023/01/05 04:27:23;;;;;;;0.10;0.10;;;;;;;12.84;65.42;101790.41;5044635;28;20112;-81
2023/01/05 04:29:49;;;;;;;0.40;0.40;;;;;;;12.87;65.08;101785.91;5048352;28;20041;-81
2023/01/05 04:32:15;;;;;;;0.10;0.10;;;;;;;12.91;65.19;101789.38;5040117;28;20501;-81
2023/01/05 04:34:42;;;;;;;0.20;0.20;;;;;;;12.85;65.78;101806.31;5052097;28;20067;-81
2023/01/05 04:37:08;;;;;;;0.20;0.20;;;;;;;12.87;65.31;101791.25;5055291;28;20091;-81
2023/01/05 04:39:34;;;;;;;0.20;0.20;;;;;;;12.88;65.49;101792.97;5054126;28;20547;-81
2023/01/05 04:42:00;;;;;;;0.10;0.10;;;;;;;12.99;65.40;101802.59;5050747;28;20029;-81
2023/01/05 04:44:26;;;;;;;0.10;0.10;;;;;;;12.94;65.69;101807.97;5050798;28;20382;-81
2023/01/05 04:46:52;;;;;;;0.10;0.10;;;;;;;12.91;64.84;101792.94;5048034;28;20057;-81
2023/01/05 04:49:18;;;;;;;0.10;0.10;;;;;;;12.90;65.42;101804.47;5049069;28;20152;-81
2023/01/05 04:51:44;;;;;;;1.00;1.00;;;;;;;12.81;65.82;101796.66;5049756;28;20036;-81
2023/01/05 04:54:10;;;;;;;0.10;0.10;;;;;;;12.78;65.50;101802.88;5040600;28;20483;-80
2023/01/05 04:56:37;;;;;;;15.00;1.00;;;;;;;12.85;65.17;101816.97;5051083;28;20060;-80
2023/01/05 04:59:03;;;;;;;0.10;0.10;;;;;;;12.86;65.31;101805.44;5054496;28;20044;-81
2023/01/05 05:01:29;;;;;;;1.13;1.02;;;;;;;12.87;65.28;101815.19;5041763;28;20401;-82
2023/01/05 05:03:55;;;;;;;0.40;0.40;;;;;;;12.87;65.24;101823.16;5044484;28;20048;-82
2023/01/05 05:06:21;;;;;;;0.10;0.10;;;;;;;12.77;65.87;101813.53;5040153;28;20032;-82
2023/01/05 05:08:47;;;;;;;0.10;0.10;;;;;;;12.79;65.85;101817.06;5049377;28;20032;-79
2023/01/05 05:11:13;;;;;;;0.10;0.10;;;;;;;12.82;65.50;101817.00;5054617;28;20098;-80
2023/01/05 05:13:39;;;;;;;0.22;0.22;;;;;;;12.86;65.38;101816.06;5048107;28;20028;-82
2023/01/05 05:16:06;;;;;;;0.10;0.10;;;;;;;12.90;65.28;101817.78;5040742;28;20064;-80
2023/01/05 05:18:32;;;;;;;0.10;0.10;;;;;;;12.91;65.51;101822.19;5048561;28;20035;-79
2023/01/05 05:20:58;;;;;;;0.10;0.10;;;;;;;12.82;65.87;101826.75;5055380;28;20041;-79
2023/01/05 05:23:24;;;;;;;1.25;1.25;;;;;;;12.90;65.54;101828.41;5055333;28;20033;-79
2023/01/05 05:25:51;;;;;;;0.65;0.65;;;;;;;12.95;65.62;101833.69;5065209;28;20029;-79
2023/01/05 05:28:18;;;;;;;12.90;5.13;;;;;;;12.86;65.38;101863.03;5072189;28;20017;-79
2023/01/05 05:30:46;;;;;;;0.20;0.20;;;;;;;12.91;65.58;101840.81;5060655;28;20037;-79
2023/01/05 05:33:12;;;;;;;0.10;0.10;;;;;;;12.92;65.48;101847.91;5068536;28;20033;-79
2023/01/05 05:35:38;;;;;;;0.20;0.20;;;;;;;12.90;65.74;101854.16;5068910;28;20041;-79
2023/01/05 05:38:04;;;;;;;0.10;0.10;;;;;;;12.77;65.72;101864.94;5068062;28;20092;-79
2023/01/05 05:40:30;;;;;;;0.10;0.10;;;;;;;12.85;66.22;101862.19;5067636;28;20045;-79
2023/01/05 05:42:57;;;;;;;0.20;0.20;;;;;;;12.88;66.11;101867.44;5067447;28;20043;-79
2023/01/05 05:45:23;;;;;;;1.00;1.00;;;;;;;12.82;66.45;101867.53;5049045;28;20152;-80
2023/01/05 05:47:49;;;;;;;0.10;0.10;;;;;;;12.88;65.63;101867.44;5055207;28;20146;-80
2023/01/05 05:50:15;;;;;;;2.20;0.82;;;;;;;12.87;66.30;101864.81;5059307;28;20337;-80
2023/01/05 05:52:41;;;;;;;1.55;1.48;;;;;;;12.87;65.96;101884.34;5062750;28;20025;-80
2023/01/05 05:55:07;;;;;;;1.35;1.35;;;;;;;12.85;65.54;101880.81;5058403;28;20443;-80
2023/01/05 05:57:35;;;;;;;1.02;1.02;;;;;;;12.88;66.10;101875.41;5054596;28;20075;-80
2023/01/05 06:00:01;;;;;;;0.17;0.17;;;;;;;12.80;65.81;101879.97;5050686;28;20032;-80
2023/01/05 06:02:27;;;;;;;1.48;1.45;;;;;;;12.86;66.17;101873.69;5050967;28;20451;-79
2023/01/05 06:04:53;;;;;;;0.10;0.10;;;;;;;12.90;65.75;101872.78;5052450;28;20396;-80
2023/01/05 06:07:19;;;;;;;0.10;0.10;;;;;;;12.95;65.24;101879.78;5059754;28;20048;-80
2023/01/05 06:09:45;;;;;;;0.13;0.13;;;;;;;12.89;65.57;101878.97;5054831;28;20099;-80
2023/01/05 06:12:11;;;;;;;0.10;0.10;;;;;;;12.86;65.72;101876.34;5058974;28;20112;-80
2023/01/05 06:14:37;;;;;;;0.10;0.10;;;;;;;12.81;65.66;101880.84;5056122;28;20040;-80
2023/01/05 06:17:03;;;;;;;2.20;1.85;;;;;;;12.86;65.93;101879.91;5053409;28;20033;-80
2023/01/05 06:19:29;;;;;;;0.05;0.05;;;;;;;12.82;65.87;101880.81;5054612;28;20506;-80
2023/01/05 06:21:55;;;;;;;0.17;0.17;;;;;;;12.89;65.34;101890.50;5049117;28;20513;-80
2023/01/05 06:24:22;;;;;;;0.30;0.30;;;;;;;12.90;65.28;101902.03;5048959;28;20501;-80
2023/01/05 06:26:48;;;;;;;0.10;0.10;;;;;;;12.84;65.64;101908.28;5054642;28;20115;-80
2023/01/05 06:29:14;;;;;;;0.30;0.30;;;;;;;12.84;66.05;101904.75;5049563;28;20029;-80
2023/01/05 06:31:40;;;;;;;0.32;0.25;;;;;;;12.83;65.58;101914.50;5056183;28;20483;-80
2023/01/05 06:34:06;;;;;;;0.88;0.85;;;;;;;12.77;65.85;101914.56;5055661;28;20589;-80
2023/01/05 06:36:32;;;;;;;0.20;0.20;;;;;;;12.82;65.16;101925.16;5054225;28;20041;-80
2023/01/05 06:38:58;;;;;;;0.10;0.10;;;;;;;12.87;65.54;101924.22;5035372;28;20075;-80
2023/01/05 06:41:24;;;;;;;0.30;0.30;;;;;;;12.79;65.45;101936.72;5051781;28;20051;-80
2023/01/05 06:43:50;;;;;;;0.10;0.10;;;;;;;12.82;65.17;101931.34;5052246;28;20036;-80
2023/01/05 06:46:16;;;;;;;27.50;2.10;;;;;;;12.83;64.87;101927.81;5055230;28;20029;-80
2023/01/05 06:48:42;;;;;;;0.10;0.10;;;;;;;12.82;65.34;101935.81;5054426;28;20167;-80
2023/01/05 06:51:08;;;;;;;0.38;0.38;;;;;;;12.83;65.02;101933.13;5054837;28;20067;-80
2023/01/05 06:53:34;;;;;;;0.68;0.68;;;;;;;12.82;65.38;101931.34;5059190;28;20498;-80
2023/01/05 06:56:00;;;;;;;0.75;0.75;;;;;;;12.85;65.54;101941.09;5050863;28;20470;-80
2023/01/05 06:58:26;;;;;;;0.10;0.10;;;;;;;12.78;65.43;101938.53;5057680;28;20404;-80
2023/01/05 07:00:53;;;;;;;0.10;0.10;;;;;;;12.80;65.82;101935.84;5047647;28;20094;-80
2023/01/05 07:03:22;;;;;;;0.10;0.10;;;;;;;12.78;65.12;101935.84;5051231;28;20178;-80
2023/01/05 07:05:48;;;;;;;0.63;0.63;;;;;;;12.80;65.29;101949.13;5043642;28;20401;-80
2023/01/05 07:08:14;;;;;;;0.20;0.20;;;;;;;12.78;65.04;101946.50;5045020;28;20044;-80
2023/01/05 07:10:40;;;;;;;0.10;0.10;;;;;;;12.77;64.91;101949.16;5045945;28;20044;-80
2023/01/05 07:13:06;;;;;;;0.10;0.10;;;;;;;12.71;65.61;101947.47;5047669;28;20034;-80
2023/01/05 07:15:32;;;;;;;0.40;0.40;;;;;;;12.75;64.73;101956.28;5049451;28;20033;-80
2023/01/05 07:17:58;;;;;;;2.25;2.05;;;;;;;12.69;65.46;101967.84;5044262;28;20497;-80
2023/01/05 07:20:24;;;;;;;0.38;0.38;;;;;;;12.67;65.52;101955.47;5050922;28;20044;-80
2023/01/05 07:22:51;;;;;;;0.22;0.22;;;;;;;12.66;65.30;101956.38;5052690;28;20091;-80
2023/01/05 07:25:17;;;;;;;0.10;0.10;;;;;;;12.60;65.56;101958.19;5051080;28;20411;-80
2023/01/05 07:27:43;;;;;;;0.73;0.73;;;;;;;12.54;65.42;101968.91;5044188;28;20056;-80
2023/01/05 07:30:10;;;;;;;8.30;1.55;;;;;;;12.56;65.07;101959.13;5048749;28;20041;-79
2023/01/05 07:32:36;;;;;;;0.10;0.10;;;;;;;12.51;65.06;101960.06;5056303;28;20055;-79
2023/01/05 07:35:02;;;;;;;24.65;2.55;;;;;;;12.46;65.65;101965.41;5048628;28;20344;-80
2023/01/05 07:37:29;;;;;;;0.10;0.10;;;;;;;12.40;65.83;101962.81;5053292;28;20057;-80
2023/01/05 07:39:55;;;;;;;0.20;0.20;;;;;;;12.38;65.69;101972.59;5055077;28;20068;-80
2023/01/05 07:42:21;;;;;;;0.95;0.95;;;;;;;12.39;66.18;101979.69;5050150;28;20034;-80
2023/01/05 07:44:47;;;;;;;0.10;0.10;;;;;;;12.32;66.12;101970.88;5047347;28;20032;-79
2023/01/05 07:47:13;;;;;;;0.10;0.10;;;;;;;12.33;66.13;101974.44;5058465;28;20052;-80
2023/01/05 07:49:39;;;;;;;0.20;0.20;;;;;;;12.28;66.04;101983.31;5054277;28;20029;-79
2023/01/05 07:52:05;;;;;;;2.70;2.47;;;;;;;12.27;66.23;101978.91;5052088;28;20408;-80
2023/01/05 07:54:31;;;;;;;6.03;1.95;;;;;;;12.17;66.57;101998.47;5058640;28;20090;-80
2023/01/05 07:56:57;;;;;;;0.10;0.10;;;;;;;12.19;66.71;101994.03;5058993;28;20036;-79
2023/01/05 07:59:23;;;;;;;0.85;0.85;;;;;;;12.17;66.13;101990.50;5055865;28;20021;-79
2023/01/05 08:01:49;;;;;;;0.20;0.20;;;;;;;12.13;66.18;101999.38;5064738;28;20036;-80
2023/01/05 08:04:15;;;;;;;0.10;0.10;;;;;;;12.10;66.57;101996.75;5056435;28;20096;-80
2023/01/05 08:06:41;;;;;;;13.88;1.45;;;;;;;11.95;67.46;101998.59;5053813;28;20087;-80
2023/01/05 08:11:53;;;;;;;0.10;0.10;;;;;;;12.02;66.90;102003.91;5048461;28;20398;-79
2023/01/05 08:14:19;;;;;;;1.38;1.30;;;;;;;12.04;67.29;101999.47;5051415;28;20378;-79
2023/01/05 08:16:45;;;;;;;0.10;0.10;;;;;;;12.03;66.99;102003.88;5045223;28;20079;-79
2023/01/05 08:19:12;;;;;;;0.10;0.10;;;;;;;12.08;67.47;102014.50;5048121;28;20029;-78
2023/01/05 08:21:38;;;;;;;0.85;0.85;;;;;;;12.01;67.51;102021.59;5055790;28;20029;-78
2023/01/05 08:24:05;;;;;;;0.20;0.20;;;;;;;11.90;68.06;102021.66;5060218;28;20029;-78
2023/01/05 08:26:31;;;;;;;0.30;0.30;;;;;;;11.91;68.11;102018.13;5058934;28;20155;-78
2023/01/05 08:29:00;;;;;;;0.10;0.10;;;;;;;12.03;67.35;102030.44;5053571;28;20535;-78
2023/01/05 08:31:28;;;;;;;0.30;0.30;;;;;;;12.01;67.31;102034.88;5057065;28;20094;-78
2023/01/05 08:33:58;;;;;;;1.65;1.55;;;;;;;12.10;67.50;102036.59;5056716;28;20041;-78
2023/01/05 08:36:25;;;;;;;0.40;0.40;;;;;;;12.11;67.48;102038.34;5054526;28;20052;-78
2023/01/05 08:38:53;;;;;;;0.82;0.50;;;;;;;12.14;67.19;102046.31;5056328;28;20103;-78
2023/01/05 08:43:59;;;;;;;0.10;0.10;;;;;;;12.24;67.06;102040.03;5103583;27;1290991;-80
2023/01/05 08:46:28;;;;;;;0.10;0.10;;;;;;;12.30;67.26;102049.75;5132299;27;20032;-80
2023/01/05 08:48:57;;;;;;;3.92;2.70;;;;;;;12.35;66.78;102055.91;5117367;28;20032;-80
2023/01/05 08:51:23;;;;;;;0.10;0.10;;;;;;;12.36;66.83;102059.44;5113509;28;20023;-79
2023/01/05 08:53:50;;;;;;;0.10;0.10;;;;;;;12.43;66.68;102056.72;5111005;28;20032;-80
2023/01/05 08:56:16;;;;;;;0.10;0.10;;;;;;;12.49;66.15;102061.09;5113909;28;20031;-80
2023/01/05 08:58:42;;;;;;;0.10;0.10;;;;;;;12.51;66.09;102058.44;5112820;28;20028;-80
2023/01/05 09:01:11;;;;;;;1.35;1.35;;;;;;;12.50;66.09;102070.84;5117613;28;20042;-78
2023/01/05 09:03:37;;;;;;;1.20;1.15;;;;;;;12.59;66.39;102073.41;5125982;28;20028;-78
2023/01/05 09:06:08;;;;;;;0.10;0.10;;;;;;;12.55;65.25;102068.16;5121864;28;20099;-78
2023/01/05 09:08:34;;;;;;;0.57;0.57;;;;;;;12.68;65.75;102071.59;5120412;28;20115;-78
2023/01/05 09:11:19;;;;;;;0.10;0.10;;;;;;;12.81;65.44;102075.00;5117195;28;20035;-79
2023/01/05 09:13:48;;;;;;;17.00;2.05;;;;;;;12.79;65.23;102080.34;5110701;28;20027;-79
2023/01/05 09:16:18;;;;;;;0.10;0.10;;;;;;;12.76;65.36;102072.38;5114363;28;20027;-80
2023/01/05 09:18:45;;;;;;;2.15;1.95;;;;;;;12.74;65.11;102068.88;5115887;28;20107;-79
2023/01/05 09:21:12;;;;;;;0.47;0.47;;;;;;;12.83;64.98;102066.09;5114536;28;20039;-78
2023/01/05 09:23:38;;;;;;;0.10;0.10;;;;;;;12.82;64.87;102068.78;5114029;28;20024;-79
2023/01/05 09:26:07;;;;;;;0.20;0.20;;;;;;;12.81;64.46;102078.56;5111716;28;20039;-79
2023/01/05 09:28:35;;;;;;;0.10;0.10;;;;;;;12.84;65.21;102088.28;5104133;28;20036;-78
2023/01/05 09:31:06;;;;;;;0.10;0.10;;;;;;;12.91;64.56;102087.31;5111849;28;20031;-79
2023/01/05 09:33:33;;;;;;;0.10;0.10;;;;;;;12.91;64.86;102085.53;5113614;28;20047;-80
2023/01/05 09:35:59;;;;;;;0.10;0.10;;;;;;;12.98;64.40;102085.47;5113856;28;20038;-80
2023/01/05 09:38:25;;;;;;;0.10;0.10;;;;;;;12.92;64.68;102086.41;5113239;28;20049;-80
2023/01/05 09:40:54;;;;;;;0.40;0.40;;;;;;;12.95;64.89;102094.38;5106618;28;20437;-80
2023/01/05 09:43:26;;;;;;;0.20;0.20;;;;;;;12.96;64.33;102093.50;5109628;28;20032;-79
2023/01/05 09:45:53;;;;;;;;;;;;;;;13.05;63.92;102095.16;5113539;28;20028;-80
2023/01/05 09:48:20;;;;;;;0.15;0.15;;;;;;;13.01;64.07;102096.97;5114052;28;19908;-79
2023/01/05 09:50:48;;;;;;;0.10;0.10;;;;;;;13.02;64.15;102104.06;5110516;28;20059;-79
2023/01/05 09:53:17;;;;;;;2.38;1.15;;;;;;;13.01;64.35;102098.75;5106509;28;20020;-79
2023/01/05 09:55:46;;;;;;;0.10;0.10;;;;;;;13.10;64.33;102110.16;5096699;28;20417;-78
2023/01/05 09:58:16;;;;;;;0.38;0.38;;;;;;;13.15;63.94;102112.78;5098791;28;20028;-79
2023/01/05 10:00:56;;;;;;;0.10;0.10;;;;;;;13.16;64.28;102111.91;5100941;28;20035;-79
2023/01/05 10:03:24;;;;;;;0.22;0.22;;;;;;;13.20;64.20;102116.28;5107669;28;20516;-77
2023/01/05 10:05:51;;;;;;;0.50;0.50;;;;;;;13.23;63.97;102118.94;5104161;28;20032;-78
2023/01/05 10:08:35;;;;;;;1.45;0.63;;;;;;;13.27;63.96;102130.41;5100624;28;20034;-80
2023/01/05 10:16:33;;;;;;;0.20;0.20;;;;;;;13.36;63.51;102134.78;5102133;27;20394;-77
2023/01/05 10:19:00;;;;;;;2.92;1.17;;;;;;;13.30;63.36;102132.19;5098496;28;20036;-80
2023/01/05 10:21:54;;;;;;;0.32;0.32;;;;;;;13.38;63.34;102119.69;5094082;28;20040;-78
2023/01/05 10:24:34;;;;;;;0.20;0.20;;;;;;;13.46;63.50;102120.47;5090207;28;20020;-79
2023/01/05 10:27:16;;;;;;;5.72;2.08;;;;;;;13.53;63.21;102116.84;5083075;28;20024;-79
2023/01/05 10:29:46;;;;;;;1.37;1.27;;;;;;;13.56;63.04;102122.13;5083995;28;20093;-79
2023/01/05 10:34:59;;;;;;;0.10;0.10;;;;;;;13.64;63.14;102123.81;5072239;28;20375;-79
2023/01/05 10:40:27;;;;;;;0.10;0.10;;;;;;;13.80;62.86;102120.06;5119625;27;20388;-79
2023/01/05 10:43:15;;;;;;;0.10;0.10;;;;;;;13.88;62.85;102120.84;5112968;28;20030;-79
2023/01/05 10:45:41;;;;;;;0.15;0.15;;;;;;;13.86;62.71;102116.44;5116288;28;20038;-79
2023/01/05 10:48:18;;;;;;;0.10;0.10;;;;;;;13.91;62.86;102120.78;5131423;27;20036;-79
2023/01/05 10:50:46;;;;;;;0.10;0.10;;;;;;;13.98;62.83;102120.72;5130546;27;20027;-79
2023/01/05 10:53:17;;;;;;;0.10;0.10;;;;;;;14.06;62.69;102116.16;5121604;27;20054;-79
2023/01/05 10:58:23;;;;;;;0.68;0.68;;;;;;;14.16;62.16;102128.44;5113454;27;20391;-79
2023/01/05 11:00:51;;;;;;;1.20;1.20;;;;;;;14.16;62.03;102130.25;5123476;28;20063;-79
2023/01/05 11:03:23;;;;;;;5.03;1.48;;;;;;;14.17;62.27;102130.22;5113049;28;20034;-78
2023/01/05 11:05:49;;;;;;;0.10;0.10;;;;;;;14.07;62.43;102124.13;5113360;28;20115;-79
2023/01/05 11:08:19;;;;;;;0.10;0.10;;;;;;;14.08;62.83;102122.34;5115767;28;20225;-79
2023/01/05 11:13:38;;;;;;;0.10;0.10;;;;;;;14.05;62.89;102119.72;5106028;27;20410;-79
2023/01/05 11:16:19;;;;;;;1.08;1.08;;;;;;;14.07;62.93;102120.59;5114816;28;20490;-79
2023/01/05 11:18:53;;;;;;;3.65;3.35;;;;;;;14.07;62.90;102118.81;5113381;28;20023;-79
2023/01/05 11:21:23;;;;;;;0.40;0.40;;;;;;;13.99;62.88;102127.81;5112325;28;20097;-79
2023/01/05 11:23:53;;;;;;;0.10;0.10;;;;;;;14.02;62.81;102119.78;5113578;28;20028;-79
2023/01/05 11:34:46;;;;;;;4.80;0.73;;;;;;;14.21;62.70;102117.72;5128240;27;1196119;-78
2023/01/05 11:39:53;;;;;;;1.02;0.75;;;;;;;14.21;62.13;102109.72;5105445;27;20134;-79
2023/01/05 11:42:33;;;;;;;0.10;0.10;;;;;;;14.30;62.05;102103.38;5070380;28;20035;-79
2023/01/05 11:45:06;;;;;;;5.82;2.20;;;;;;;14.27;62.23;102106.97;5071788;28;20024;-78
2023/01/05 11:47:45;;;;;;;0.10;0.10;;;;;;;14.28;61.73;102105.19;5072135;28;20035;-78
2023/01/05 11:53:04;;;;;;;0.40;0.40;;;;;;;14.35;61.74;102097.06;5119449;27;1183218;-79
2023/01/05 11:55:38;;;;;;;0.22;0.22;;;;;;;14.37;61.57;102094.38;5131088;27;20050;-79
2023/01/05 12:01:24;;;;;;;0.20;0.20;;;;;;;14.42;61.65;102099.63;5124039;27;20385;-78
2023/01/05 12:04:18;;;;;;;0.10;0.10;;;;;;;14.51;61.41;102102.16;5091730;28;20039;-79
2023/01/05 12:07:00;;;;;;;0.10;0.10;;;;;;;14.47;61.01;102104.00;5091065;28;20468;-79
2023/01/05 12:09:35;;;;;;;0.10;0.10;;;;;;;14.50;61.08;102100.38;5087690;28;20029;-77
2023/01/05 12:17:22;;;;;;;0.10;0.10;;;;;;;14.40;60.86;102100.56;5107525;27;20351;-79
2023/01/05 12:20:02;;;;;;;0.10;0.10;;;;;;;14.39;60.92;102097.88;5109786;28;20035;-79
2023/01/05 12:22:52;;;;;;;0.10;0.10;;;;;;;14.34;60.94;102089.97;5111501;28;20315;-79
2023/01/05 12:25:57;;;;;;;2.40;2.20;;;;;;;14.27;61.06;102084.75;5102590;28;20055;-79
2023/01/05 12:28:41;;;;;;;0.40;0.40;;;;;;;14.19;61.16;102090.19;5110605;28;20110;-79
2023/01/05 12:31:33;;;;;;;5.00;3.10;;;;;;;14.20;61.02;102092.84;5107471;28;20042;-79
2023/01/05 12:37:18;;;;;;;0.20;0.20;;;;;;;14.22;61.23;102087.50;5110574;27;20668;-79
2023/01/05 12:43:06;;;;;;;2.83;1.52;;;;;;;14.20;61.35;102087.50;5128327;27;20791;-79
2023/01/05 12:48:27;;;;;;;2.85;2.50;;;;;;;14.18;61.51;102089.34;5011925;28;20532;-79
2023/01/05 12:54:04;;;;;;;0.40;0.40;;;;;;;14.23;61.80;102086.56;5122955;27;1188985;-79
2023/01/05 12:59:43;;;;;;;2.45;1.85;;;;;;;14.38;61.63;102091.69;5093809;27;20164;-79
2023/01/05 13:04:57;;;;;;;0.40;0.40;;;;;;;14.48;61.71;102087.09;5118652;27;1199700;-76
2023/01/05 13:07:31;;;;;;;0.10;0.10;;;;;;;14.52;61.58;102085.25;5121588;27;20450;-77
2023/01/05 13:10:04;;;;;;;0.10;0.10;;;;;;;14.50;61.50;102085.25;5111098;28;20619;-78
2023/01/05 13:12:33;;;;;;;1.20;1.20;;;;;;;14.47;61.46;102089.78;5104251;28;20070;-77
2023/01/05 13:15:17;;;;;;;0.90;0.90;;;;;;;14.47;61.53;102090.66;5113124;28;20027;-78
2023/01/05 13:17:49;;;;;;;0.70;0.70;;;;;;;14.44;61.48;102085.34;5113177;28;20122;-78
2023/01/05 13:23:04;;;;;;;1.58;1.48;;;;;;;14.40;62.29;102083.66;5092208;28;21116;-79
2023/01/05 13:25:37;;;;;;;0.10;0.10;;;;;;;14.37;62.18;102083.72;5092890;28;20028;-79
2023/01/05 13:28:03;;;;;;;3.00;2.20;;;;;;;14.31;62.26;102084.69;5111988;28;20074;-79